Time;durP1;ratioP1;P1;durP2;ratioP2;P2;SDS_P1;SDS_P2;PMS_P1;PMS_P2;Temp;Humidity;BMP_temperature;BMP_pressure;BME280_temperature;BME280_humidity;BME280_pressure;Samples;Min_cycle;Max_cycle;Signal;HPM_P1;HPM_P2
2024/02/06 00:01:10;;;;;;;4.43;3.25;;;12.40;82.80;;;;;;4878111;29;20060;-81
2024/02/06 00:03:37;;;;;;;4.35;3.45;;;12.40;82.80;;;;;;4882294;29;20043;-82
2024/02/06 00:06:02;;;;;;;4.90;3.88;;;12.40;82.80;;;;;;4872259;29;20131;-83
2024/02/06 00:08:28;;;;;;;4.60;3.42;;;12.30;82.70;;;;;;4893297;29;20123;-81
2024/02/06 00:10:54;;;;;;;4.32;3.35;;;12.40;82.80;;;;;;4908556;29;20037;-82
2024/02/06 00:13:20;;;;;;;4.47;3.30;;;12.30;82.70;;;;;;4894449;29;20382;-83
2024/02/06 00:15:46;;;;;;;3.80;3.22;;;12.30;82.80;;;;;;4887638;29;20052;-83
2024/02/06 00:18:12;;;;;;;4.00;3.22;;;12.30;82.80;;;;;;4895368;29;20084;-78
2024/02/06 00:20:37;;;;;;;4.70;3.40;;;12.30;82.70;;;;;;4891903;29;20698;-83
2024/02/06 00:23:03;;;;;;;4.38;3.53;;;12.40;82.80;;;;;;4889198;29;20055;-79
2024/02/06 00:25:29;;;;;;;4.75;3.70;;;12.30;82.80;;;;;;4876173;29;20039;-82
2024/02/06 00:27:56;;;;;;;5.13;3.78;;;12.30;82.80;;;;;;4876047;29;20329;-84
2024/02/06 00:30:22;;;;;;;4.60;3.72;;;12.30;82.80;;;;;;4879956;29;20088;-82
2024/02/06 00:32:48;;;;;;;4.93;3.90;;;12.30;82.70;;;;;;4891478;29;20089;-82
2024/02/06 00:35:14;;;;;;;5.22;3.97;;;12.30;83.40;;;;;;4893480;29;20040;-78
2024/02/06 00:37:40;;;;;;;4.40;3.42;;;12.30;82.80;;;;;;4876098;29;20503;-83
2024/02/06 00:40:06;;;;;;;6.05;3.90;;;12.30;82.80;;;;;;4882831;29;20044;-83
2024/02/06 00:42:32;;;;;;;5.10;3.90;;;12.40;82.90;;;;;;4891528;29;20040;-83
2024/02/06 00:44:58;;;;;;;6.38;4.07;;;12.30;82.80;;;;;;4893991;29;21589;-82
2024/02/06 00:47:23;;;;;;;4.30;3.38;;;12.30;82.80;;;;;;4891309;29;20040;-81
2024/02/06 00:49:49;;;;;;;5.00;3.97;;;12.40;82.90;;;;;;4872801;29;20035;-83
2024/02/06 00:52:15;;;;;;;4.78;3.83;;;12.30;82.80;;;;;;4875899;29;20032;-80
2024/02/06 00:54:41;;;;;;;5.47;4.22;;;12.30;82.80;;;;;;4893599;29;20478;-84
2024/02/06 00:57:07;;;;;;;5.00;3.97;;;12.30;82.80;;;;;;4891877;29;20100;-82
2024/02/06 00:59:33;;;;;;;5.72;4.28;;;12.30;82.80;;;;;;4884494;29;20340;-78
2024/02/06 01:02:00;;;;;;;5.25;4.22;;;12.30;82.80;;;;;;4882704;29;20423;-82
2024/02/06 01:04:26;;;;;;;4.68;3.80;;;12.30;82.70;;;;;;4907966;29;20064;-84
2024/02/06 01:06:52;;;;;;;5.88;3.92;;;12.30;82.70;;;;;;4907815;29;20119;-83
2024/02/06 01:09:20;;;;;;;5.80;4.43;;;12.30;82.70;;;;;;4892737;29;20029;-84
2024/02/06 01:11:47;;;;;;;5.72;4.38;;;12.40;82.80;;;;;;4904004;29;20103;-84
2024/02/06 01:14:13;;;;;;;6.07;4.68;;;12.30;82.80;;;;;;4904436;29;20028;-82
2024/02/06 01:16:39;;;;;;;5.15;4.25;;;12.40;82.80;;;;;;4877257;29;20080;-83
2024/02/06 01:19:05;;;;;;;5.40;4.43;;;12.30;82.70;;;;;;4890825;29;20036;-82
2024/02/06 01:21:30;;;;;;;4.80;3.80;;;12.30;82.70;;;;;;4891762;29;20036;-84
2024/02/06 01:23:57;;;;;;;5.88;4.80;;;12.30;82.70;;;;;;4886182;29;20017;-81
2024/02/06 01:26:23;;;;;;;5.93;4.63;;;12.30;82.70;;;;;;4883772;29;20036;-83
2024/02/06 01:28:49;;;;;;;6.20;4.90;;;12.30;82.70;;;;;;4875518;29;20029;-79
2024/02/06 01:31:14;;;;;;;4.93;4.13;;;12.40;82.80;;;;;;4888717;29;20286;-78
2024/02/06 01:33:40;;;;;;;6.10;4.35;;;12.30;82.70;;;;;;4877400;29;20085;-79
2024/02/06 01:36:07;;;;;;;5.95;4.85;;;12.30;82.70;;;;;;4892260;29;20112;-83
2024/02/06 01:38:33;;;;;;;6.10;4.53;;;12.30;82.80;;;;;;4875100;29;20116;-79
2024/02/06 01:40:59;;;;;;;6.40;4.57;;;12.30;82.70;;;;;;4890155;29;20107;-84
2024/02/06 01:43:24;;;;;;;6.30;4.55;;;12.30;82.70;;;;;;4891794;29;20032;-84
2024/02/06 01:45:54;;;;;;;5.80;4.80;;;12.30;82.70;;;;;;4899512;29;20033;-84
2024/02/06 01:48:21;;;;;;;6.68;4.63;;;12.30;82.70;;;;;;4885247;29;20096;-79
2024/02/06 01:50:48;;;;;;;5.78;4.47;;;12.30;82.70;;;;;;4894781;29;20025;-84
2024/02/06 01:53:14;;;;;;;5.75;4.13;;;12.40;82.80;;;;;;4882896;29;20025;-84
2024/02/06 01:55:41;;;;;;;5.20;4.13;;;12.30;83.40;;;;;;4888264;29;20558;-82
2024/02/06 01:58:08;;;;;;;6.07;4.75;;;12.40;82.80;;;;;;4876001;29;20478;-82
2024/02/06 02:00:38;;;;;;;6.53;4.72;;;12.30;82.70;;;;;;4890034;29;20080;-79
2024/02/06 02:03:04;;;;;;;5.25;4.13;;;12.40;82.70;;;;;;4895629;29;20048;-79
2024/02/06 02:05:31;;;;;;;5.03;4.18;;;12.40;82.70;;;;;;4892355;29;20513;-84
2024/02/06 02:07:57;;;;;;;6.25;4.45;;;12.40;82.70;;;;;;4897003;29;20032;-85
2024/02/06 02:10:22;;;;;;;5.50;4.63;;;12.40;82.70;;;;;;4890540;29;20028;-83
2024/02/06 02:12:48;;;;;;;5.32;4.35;;;12.30;83.30;;;;;;4888210;29;20029;-81
2024/02/06 02:15:17;;;;;;;5.20;4.32;;;12.40;82.70;;;;;;4878623;29;20205;-83
2024/02/06 02:17:49;;;;;;;5.57;4.40;;;12.30;82.60;;;;;;4886279;29;20059;-82
2024/02/06 02:20:15;;;;;;;5.55;4.30;;;12.40;82.70;;;;;;4888717;29;20033;-82
2024/02/06 02:22:41;;;;;;;7.45;4.30;;;12.40;82.70;;;;;;4896360;29;20035;-84
2024/02/06 02:25:07;;;;;;;5.85;4.40;;;12.40;82.60;;;;;;4893661;29;20031;-84
2024/02/06 02:27:33;;;;;;;5.40;4.18;;;12.40;82.60;;;;;;4898658;29;20029;-82
2024/02/06 02:29:59;;;;;;;5.20;4.00;;;12.40;82.60;;;;;;4899492;29;20036;-82
2024/02/06 02:32:25;;;;;;;5.57;4.07;;;12.40;82.60;;;;;;4888040;29;20039;-79
2024/02/06 02:34:50;;;;;;;6.13;4.30;;;12.40;82.60;;;;;;4884324;29;20033;-82
2024/02/06 02:37:16;;;;;;;5.43;4.38;;;12.40;82.60;;;;;;4908419;29;20036;-79
2024/02/06 02:39:42;;;;;;;5.30;4.05;;;12.40;82.60;;;;;;4890197;29;20037;-82
2024/02/06 02:42:08;;;;;;;5.30;3.75;;;12.40;82.60;;;;;;4891635;29;20025;-78
2024/02/06 02:44:33;;;;;;;4.57;3.85;;;12.30;82.50;;;;;;4891501;29;20268;-83
2024/02/06 02:46:59;;;;;;;5.05;3.80;;;12.40;82.60;;;;;;4892078;29;20091;-78
2024/02/06 02:49:25;;;;;;;5.30;4.00;;;12.40;82.60;;;;;;4893548;29;20025;-82
2024/02/06 02:51:51;;;;;;;4.72;3.80;;;12.40;82.60;;;;;;4877289;29;20165;-83
2024/02/06 02:54:16;;;;;;;4.50;3.20;;;12.40;82.60;;;;;;4910232;29;20021;-84
2024/02/06 02:56:42;;;;;;;6.38;3.80;;;12.40;82.60;;;;;;4892617;29;20035;-82
2024/02/06 02:59:08;;;;;;;4.93;3.65;;;12.40;82.60;;;;;;4885513;29;20066;-83
2024/02/06 03:01:34;;;;;;;5.70;3.85;;;12.40;82.60;;;;;;4891444;29;20036;-84
2024/02/06 03:03:59;;;;;;;4.20;3.33;;;12.40;82.60;;;;;;4885229;29;20040;-82
2024/02/06 03:06:25;;;;;;;4.93;3.53;;;12.40;82.50;;;;;;4891462;29;20028;-84
2024/02/06 03:08:51;;;;;;;4.70;3.30;;;12.40;82.50;;;;;;4877835;29;20083;-83
2024/02/06 03:11:16;;;;;;;5.10;3.40;;;12.40;82.50;;;;;;4879083;29;20020;-82
2024/02/06 03:13:43;;;;;;;4.93;3.30;;;12.40;82.50;;;;;;4877386;29;20464;-81
2024/02/06 03:16:09;;;;;;;4.72;3.33;;;12.40;82.50;;;;;;4882393;29;20107;-79
2024/02/06 03:18:35;;;;;;;4.38;3.28;;;12.40;82.50;;;;;;4888801;29;20044;-80
2024/02/06 03:21:03;;;;;;;5.40;3.38;;;12.40;82.50;;;;;;4888044;29;20033;-84
2024/02/06 03:23:29;;;;;;;4.30;3.03;;;12.40;82.50;;;;;;4903211;29;20398;-84
2024/02/06 03:25:55;;;;;;;4.10;3.40;;;12.40;82.50;;;;;;4912483;29;20043;-84
2024/02/06 03:28:20;;;;;;;4.20;2.92;;;12.40;82.50;;;;;;4871847;29;20111;-83
2024/02/06 03:30:46;;;;;;;4.75;3.63;;;12.40;82.50;;;;;;4894611;29;20566;-78
2024/02/06 03:33:12;;;;;;;4.93;3.22;;;12.40;82.40;;;;;;4886783;29;20379;-82
2024/02/06 03:35:39;;;;;;;4.43;3.17;;;12.40;82.50;;;;;;4894601;29;20056;-82
2024/02/06 03:38:05;;;;;;;3.90;2.78;;;12.40;82.50;;;;;;4896412;29;20029;-82
2024/02/06 03:40:32;;;;;;;4.35;2.90;;;12.40;82.50;;;;;;4892163;29;20047;-78
2024/02/06 03:42:58;;;;;;;5.15;3.38;;;12.40;82.50;;;;;;4891361;29;20028;-84
2024/02/06 03:45:25;;;;;;;4.18;3.15;;;12.40;82.50;;;;;;4887806;29;20035;-82
2024/02/06 03:47:51;;;;;;;4.32;3.20;;;12.40;82.50;;;;;;4886314;29;20029;-82
2024/02/06 03:50:17;;;;;;;4.32;2.92;;;12.40;82.40;;;;;;4892630;29;20031;-82
2024/02/06 03:52:43;;;;;;;4.10;2.80;;;12.40;82.50;;;;;;4894597;29;20032;-81
2024/02/06 03:55:09;;;;;;;5.57;3.45;;;12.40;82.50;;;;;;4894664;29;20032;-82
2024/02/06 03:57:35;;;;;;;4.30;3.03;;;12.40;82.40;;;;;;4889691;29;20039;-79
2024/02/06 04:00:01;;;;;;;4.55;3.25;;;12.40;82.50;;;;;;4893746;29;20033;-83
2024/02/06 04:02:27;;;;;;;5.05;3.35;;;12.50;82.50;;;;;;4883395;29;20409;-83
2024/02/06 04:04:53;;;;;;;5.78;3.58;;;12.50;82.50;;;;;;4888400;29;20041;-83
2024/02/06 04:07:18;;;;;;;5.50;3.58;;;12.50;82.50;;;;;;4875377;29;20075;-82
2024/02/06 04:09:44;;;;;;;5.22;3.60;;;12.50;82.50;;;;;;4892101;29;20123;-85
2024/02/06 04:12:10;;;;;;;6.63;3.60;;;12.50;82.40;;;;;;4904811;29;20036;-85
2024/02/06 04:14:39;;;;;;;4.90;3.50;;;12.50;83.10;;;;;;4903486;29;20044;-82
2024/02/06 04:17:04;;;;;;;4.88;3.50;;;12.50;82.50;;;;;;4894762;29;20037;-82
2024/02/06 04:19:30;;;;;;;3.85;2.92;;;12.50;82.40;;;;;;4881339;29;20063;-78
2024/02/06 04:21:56;;;;;;;4.30;3.42;;;12.50;82.40;;;;;;4877741;29;20023;-82
2024/02/06 04:24:21;;;;;;;5.05;3.80;;;12.50;82.40;;;;;;4879137;29;20025;-78
2024/02/06 04:26:47;;;;;;;4.70;3.53;;;12.50;82.40;;;;;;4891535;29;20040;-84
2024/02/06 04:29:14;;;;;;;5.45;3.58;;;12.50;82.50;;;;;;4885655;29;20025;-84
2024/02/06 04:31:40;;;;;;;4.78;3.63;;;12.50;82.50;;;;;;4891515;29;20032;-84
2024/02/06 04:34:06;;;;;;;5.80;3.72;;;12.50;82.50;;;;;;4894924;29;20320;-79
2024/02/06 04:36:32;;;;;;;5.20;3.75;;;12.50;82.50;;;;;;4890306;29;20033;-78
2024/02/06 04:38:58;;;;;;;5.60;3.42;;;12.50;82.40;;;;;;4894054;29;20036;-82
2024/02/06 04:41:24;;;;;;;6.85;3.90;;;12.50;82.50;;;;;;4892569;29;20088;-82
2024/02/06 04:43:50;;;;;;;6.15;3.78;;;12.50;82.50;;;;;;4891836;29;20561;-82
2024/02/06 04:46:16;;;;;;;4.70;3.53;;;12.50;82.40;;;;;;4892796;29;20033;-80
2024/02/06 04:48:42;;;;;;;5.40;3.67;;;12.50;82.40;;;;;;4905263;29;20071;-78
2024/02/06 04:51:08;;;;;;;4.55;3.47;;;12.50;82.40;;;;;;4877794;29;20041;-78
2024/02/06 04:53:37;;;;;;;5.35;3.92;;;12.50;82.50;;;;;;4887897;29;20029;-81
2024/02/06 04:56:03;;;;;;;6.47;3.97;;;12.50;82.50;;;;;;4886635;29;20067;-78
2024/02/06 04:58:29;;;;;;;5.57;3.83;;;12.50;82.40;;;;;;4882197;29;20033;-81
2024/02/06 05:00:55;;;;;;;5.07;3.90;;;12.50;82.40;;;;;;4890306;29;20035;-82
2024/02/06 05:03:21;;;;;;;5.78;4.07;;;12.50;82.40;;;;;;4896233;29;20101;-78
2024/02/06 05:05:46;;;;;;;6.32;4.32;;;12.50;82.40;;;;;;4890740;29;20049;-81
2024/02/06 05:08:12;;;;;;;5.43;3.85;;;12.50;82.40;;;;;;4888573;29;20215;-78
2024/02/06 05:10:39;;;;;;;6.18;3.65;;;12.50;82.40;;;;;;4885005;29;20478;-83
2024/02/06 05:13:07;;;;;;;5.38;3.50;;;12.50;82.50;;;;;;4892080;29;20025;-82
2024/02/06 05:15:33;;;;;;;4.80;3.78;;;12.50;82.50;;;;;;4894079;29;20052;-84
2024/02/06 05:17:58;;;;;;;4.88;3.63;;;12.40;82.40;;;;;;4891948;29;20056;-81
2024/02/06 05:20:25;;;;;;;4.80;4.05;;;12.50;82.40;;;;;;4890875;29;20028;-82
2024/02/06 05:22:51;;;;;;;5.07;4.10;;;12.50;82.40;;;;;;4891633;29;20029;-85
2024/02/06 05:25:17;;;;;;;6.57;4.30;;;12.50;83.10;;;;;;4888236;29;20108;-82
2024/02/06 05:27:42;;;;;;;4.97;3.60;;;12.40;82.40;;;;;;4880383;29;20044;-79
2024/02/06 05:30:09;;;;;;;5.22;3.97;;;12.50;82.50;;;;;;4909433;29;20037;-80
2024/02/06 05:32:35;;;;;;;6.32;4.18;;;12.40;82.40;;;;;;4880157;29;20037;-84
2024/02/06 05:35:03;;;;;;;5.43;3.90;;;12.50;82.40;;;;;;4885938;29;20036;-87
2024/02/06 05:37:29;;;;;;;4.15;3.25;;;12.50;82.50;;;;;;4904404;29;20025;-86
2024/02/06 05:39:55;;;;;;;4.78;3.72;;;12.50;82.50;;;;;;4904858;29;20050;-83
2024/02/06 05:42:20;;;;;;;4.75;3.67;;;12.50;82.50;;;;;;4893043;29;20055;-84
2024/02/06 05:44:46;;;;;;;4.85;3.65;;;12.40;82.40;;;;;;4893356;29;20029;-82
2024/02/06 05:47:12;;;;;;;4.80;3.53;;;12.40;82.40;;;;;;4873153;29;20032;-80
2024/02/06 05:49:38;;;;;;;5.13;3.88;;;12.50;82.50;;;;;;4897335;29;20029;-82
2024/02/06 05:52:04;;;;;;;5.30;3.85;;;12.50;82.50;;;;;;4887360;29;20410;-83
2024/02/06 05:54:30;;;;;;;4.95;3.65;;;12.50;82.50;;;;;;4907673;29;20040;-84
2024/02/06 05:56:55;;;;;;;4.65;3.78;;;12.50;82.50;;;;;;4903127;29;20503;-79
2024/02/06 05:59:23;;;;;;;4.68;3.53;;;12.50;82.50;;;;;;4892310;29;20035;-87
2024/02/06 06:01:49;;;;;;;6.47;4.05;;;12.50;82.50;;;;;;4894928;29;20061;-83
2024/02/06 06:04:15;;;;;;;4.90;3.88;;;12.50;82.60;;;;;;4896762;29;20032;-85
2024/02/06 06:06:42;;;;;;;6.38;4.45;;;12.50;82.50;;;;;;4889717;29;20040;-82
2024/02/06 06:09:09;;;;;;;5.40;3.92;;;12.50;82.60;;;;;;4913597;29;20119;-83
2024/02/06 06:11:35;;;;;;;5.63;4.55;;;12.50;82.60;;;;;;4895217;29;20036;-83
2024/02/06 06:14:01;;;;;;;4.90;3.60;;;12.50;82.50;;;;;;4900113;29;20655;-86
2024/02/06 06:16:27;;;;;;;4.95;4.18;;;12.50;83.10;;;;;;4898650;29;20041;-89
2024/02/06 06:18:53;;;;;;;6.20;4.47;;;12.50;82.50;;;;;;4865648;29;20037;-78
2024/02/06 06:21:18;;;;;;;4.85;3.72;;;12.50;82.60;;;;;;4892743;29;20036;-78
2024/02/06 06:23:44;;;;;;;6.13;4.00;;;12.50;82.60;;;;;;4884298;29;20085;-84
2024/02/06 06:26:10;;;;;;;5.88;3.80;;;12.40;82.50;;;;;;4895591;29;20021;-79
2024/02/06 06:28:36;;;;;;;6.40;4.20;;;12.40;82.50;;;;;;4881859;29;20036;-86
2024/02/06 06:31:01;;;;;;;6.40;4.22;;;12.40;82.50;;;;;;4881914;29;20824;-89
2024/02/06 06:33:27;;;;;;;5.50;3.83;;;12.50;82.60;;;;;;4903292;29;20037;-87
2024/02/06 06:35:53;;;;;;;5.63;3.80;;;12.50;82.60;;;;;;4889875;29;20025;-78
2024/02/06 06:38:19;;;;;;;5.28;4.13;;;12.40;82.50;;;;;;4874294;29;20106;-85
2024/02/06 06:40:45;;;;;;;6.15;4.22;;;12.50;82.60;;;;;;4893143;29;20064;-85
2024/02/06 06:43:10;;;;;;;4.85;4.07;;;12.40;82.50;;;;;;4887629;29;20032;-78
2024/02/06 06:45:36;;;;;;;5.63;4.05;;;12.50;82.60;;;;;;4905696;29;20509;-79
2024/02/06 06:48:02;;;;;;;5.10;3.97;;;12.50;82.60;;;;;;4886159;29;20025;-78
2024/02/06 06:50:28;;;;;;;5.22;3.88;;;12.50;82.60;;;;;;4893186;29;20088;-78
2024/02/06 06:52:54;;;;;;;5.50;3.80;;;12.40;82.60;;;;;;4896280;29;20032;-84
2024/02/06 06:55:22;;;;;;;4.68;3.85;;;12.50;82.60;;;;;;4893802;29;20144;-79
2024/02/06 06:57:48;;;;;;;6.80;4.28;;;12.40;82.60;;;;;;4879288;29;20115;-84
2024/02/06 07:00:14;;;;;;;5.13;3.80;;;12.50;82.60;;;;;;4897842;29;20088;-91
2024/02/06 07:02:40;;;;;;;4.78;3.85;;;12.50;82.60;;;;;;4878455;29;20033;-84
2024/02/06 07:05:25;;;;;;;5.60;3.97;;;12.40;82.60;;;;;;4897453;29;20074;-90
2024/02/06 07:07:51;;;;;;;5.18;3.63;;;12.40;82.60;;;;;;4886155;29;20419;-79
2024/02/06 07:10:17;;;;;;;5.47;4.20;;;12.40;82.50;;;;;;4875392;29;20446;-79
2024/02/06 07:12:43;;;;;;;5.05;3.60;;;12.40;82.60;;;;;;4896138;29;20017;-88
2024/02/06 07:15:09;;;;;;;4.75;3.38;;;12.40;82.60;;;;;;4896536;29;20398;-88
2024/02/06 07:17:34;;;;;;;4.90;3.22;;;12.50;82.60;;;;;;4888890;29;20039;-84
2024/02/06 07:20:00;;;;;;;5.40;3.72;;;12.40;82.60;;;;;;4884322;29;20045;-79
2024/02/06 07:22:26;;;;;;;5.95;3.92;;;12.50;82.60;;;;;;4867784;29;20037;-84
2024/02/06 07:24:51;;;;;;;4.57;3.47;;;12.50;82.70;;;;;;4892587;29;20188;-79
2024/02/06 07:27:17;;;;;;;5.97;3.83;;;12.40;83.20;;;;;;4892009;29;20119;-83
2024/02/06 07:29:43;;;;;;;5.88;3.83;;;12.50;82.70;;;;;;4895599;29;20032;-83
2024/02/06 07:32:09;;;;;;;5.97;3.20;;;12.50;82.70;;;;;;4893526;29;20029;-87
2024/02/06 07:34:37;;;;;;;6.38;3.58;;;12.40;82.60;;;;;;4890786;29;20470;-90
2024/02/06 07:37:03;;;;;;;4.80;3.30;;;12.50;82.70;;;;;;4887990;29;20580;-79
2024/02/06 07:39:29;;;;;;;6.97;3.05;;;12.50;82.70;;;;;;4890107;29;20406;-92
2024/02/06 07:41:55;;;;;;;5.85;3.83;;;12.40;82.70;;;;;;4869593;29;20112;-81
2024/02/06 07:44:23;;;;;;;4.20;3.20;;;12.40;82.70;;;;;;4896155;29;20039;-84
2024/02/06 07:46:49;;;;;;;4.68;3.20;;;12.50;82.70;;;;;;4881362;29;20028;-90
2024/02/06 07:49:18;;;;;;;5.20;3.47;;;12.40;82.60;;;;;;4895762;29;20497;-79
2024/02/06 07:51:43;;;;;;;4.85;3.58;;;12.40;82.70;;;;;;4895123;29;20096;-84
2024/02/06 07:54:09;;;;;;;6.60;3.45;;;12.40;82.60;;;;;;4885143;29;20123;-80
2024/02/06 07:56:37;;;;;;;6.72;3.42;;;12.40;82.70;;;;;;4899342;29;20024;-85
2024/02/06 07:59:04;;;;;;;5.07;3.30;;;12.40;82.60;;;;;;4894335;29;20039;-94
2024/02/06 08:01:31;;;;;;;4.50;3.35;;;12.40;82.70;;;;;;4880602;29;20033;-83
2024/02/06 08:03:56;;;;;;;4.22;3.33;;;12.50;82.70;;;;;;4889887;29;20033;-86
2024/02/06 08:06:23;;;;;;;5.85;3.40;;;12.40;82.70;;;;;;4888740;29;20048;-79
2024/02/06 08:08:49;;;;;;;5.50;3.50;;;12.40;82.70;;;;;;4885166;29;20056;-79
2024/02/06 08:11:15;;;;;;;4.50;3.22;;;12.40;82.70;;;;;;4891235;29;20028;-84
2024/02/06 08:13:42;;;;;;;5.53;3.13;;;12.40;82.70;;;;;;4887754;29;20467;-89
2024/02/06 08:16:07;;;;;;;5.53;3.47;;;12.40;82.70;;;;;;4906200;29;20458;-82
2024/02/06 08:18:33;;;;;;;4.05;3.20;;;12.40;82.70;;;;;;4893858;29;20084;-79
2024/02/06 08:20:59;;;;;;;5.07;3.25;;;12.40;82.70;;;;;;4891825;29;20104;-83
2024/02/06 08:23:25;;;;;;;4.65;3.38;;;12.50;82.70;;;;;;4888462;29;20077;-84
2024/02/06 08:25:50;;;;;;;7.75;3.60;;;12.40;82.70;;;;;;4891446;29;20123;-79
2024/02/06 08:28:16;;;;;;;4.40;3.42;;;12.40;82.70;;;;;;4891314;29;20029;-83
2024/02/06 08:30:47;;;;;;;4.60;3.28;;;12.50;82.80;;;;;;4880635;29;20307;-84
2024/02/06 08:33:15;;;;;;;5.65;3.70;;;12.40;82.70;;;;;;4889237;29;20044;-83
2024/02/06 08:35:41;;;;;;;5.13;3.45;;;12.40;82.70;;;;;;4885384;29;20025;-84
2024/02/06 08:38:07;;;;;;;5.75;3.40;;;12.40;82.70;;;;;;4900561;29;20098;-84
2024/02/06 08:40:33;;;;;;;5.20;3.38;;;12.40;82.70;;;;;;4894176;29;20036;-79
2024/02/06 08:42:59;;;;;;;4.65;3.47;;;12.40;82.70;;;;;;4890850;29;20017;-83
2024/02/06 08:45:25;;;;;;;5.18;3.38;;;12.50;82.70;;;;;;4876162;29;20029;-89
2024/02/06 08:47:51;;;;;;;5.78;3.55;;;12.40;82.70;;;;;;4893055;29;20025;-83
2024/02/06 08:50:17;;;;;;;5.10;3.47;;;12.40;82.70;;;;;;4876714;29;20124;-78
2024/02/06 08:52:43;;;;;;;3.22;2.53;;;12.50;82.70;;;;;;4891067;29;20100;-83
2024/02/06 08:55:12;;;;;;;4.35;3.03;;;12.40;82.70;;;;;;4893563;29;20037;-82
2024/02/06 08:57:38;;;;;;;4.53;3.25;;;12.50;82.70;;;;;;4893632;29;20025;-83
2024/02/06 09:00:11;;;;;;;7.50;3.45;;;12.50;82.70;;;;;;4892432;29;20041;-83
2024/02/06 09:02:38;;;;;;;4.70;3.00;;;12.50;82.70;;;;;;4892717;29;20040;-82
2024/02/06 09:05:04;;;;;;;4.90;3.45;;;12.50;82.70;;;;;;4881190;29;20047;-79
2024/02/06 09:07:29;;;;;;;5.35;3.25;;;12.50;83.30;;;;;;4889905;29;20052;-82
2024/02/06 09:09:57;;;;;;;5.47;3.28;;;12.50;82.70;;;;;;4880668;29;20025;-83
2024/02/06 09:12:26;;;;;;;5.03;3.25;;;12.40;82.60;;;;;;4880132;29;20123;-93
2024/02/06 09:14:55;;;;;;;5.43;3.22;;;12.50;82.70;;;;;;4885519;29;20031;-84
2024/02/06 09:17:21;;;;;;;6.28;3.08;;;12.40;82.60;;;;;;4880197;29;20029;-85
2024/02/06 09:19:47;;;;;;;5.28;3.10;;;12.50;82.70;;;;;;4894576;29;20044;-91
2024/02/06 09:22:13;;;;;;;8.93;3.55;;;12.50;82.60;;;;;;4892211;29;20156;-84
2024/02/06 09:24:39;;;;;;;4.72;3.33;;;12.50;82.70;;;;;;4897520;29;20024;-79
2024/02/06 09:27:08;;;;;;;5.90;3.38;;;12.50;82.60;;;;;;4879460;29;20104;-79
2024/02/06 09:29:34;;;;;;;4.88;3.00;;;12.50;82.60;;;;;;4892992;29;20052;-85
2024/02/06 09:32:00;;;;;;;4.78;3.17;;;12.50;82.60;;;;;;4887073;29;20379;-78
2024/02/06 09:34:26;;;;;;;5.45;3.08;;;12.50;82.60;;;;;;4883307;29;20131;-84
2024/02/06 09:36:51;;;;;;;4.85;2.95;;;12.50;82.60;;;;;;4902379;29;20024;-83
2024/02/06 09:39:18;;;;;;;4.63;2.92;;;12.50;82.70;;;;;;4904712;29;20033;-85
2024/02/06 09:41:49;;;;;;;5.75;3.50;;;12.50;82.70;;;;;;4882906;29;20093;-82
2024/02/06 09:44:16;;;;;;;7.35;3.38;;;12.50;82.70;;;;;;4891208;29;20033;-82
2024/02/06 09:46:49;;;;;;;5.53;3.08;;;12.50;82.70;;;;;;4888625;29;20032;-88
2024/02/06 09:49:17;;;;;;;3.97;2.60;;;12.50;82.60;;;;;;4891286;29;20371;-86
2024/02/06 09:51:44;;;;;;;4.32;2.95;;;12.50;82.60;;;;;;4911802;29;20598;-84
2024/02/06 09:54:15;;;;;;;4.25;2.53;;;12.50;82.70;;;;;;4890517;29;20067;-86
2024/02/06 09:56:42;;;;;;;4.85;2.55;;;12.50;82.70;;;;;;4891269;29;20128;-84
2024/02/06 09:59:09;;;;;;;4.05;2.55;;;12.50;82.70;;;;;;4882218;29;20072;-84
2024/02/06 10:01:37;;;;;;;4.82;2.60;;;12.50;82.70;;;;;;4887796;29;20068;-85
2024/02/06 10:04:06;;;;;;;6.90;3.10;;;12.50;82.70;;;;;;4876828;29;20028;-83
2024/02/06 10:06:36;;;;;;;4.93;2.50;;;12.60;82.70;;;;;;4883927;29;20045;-84
2024/02/06 10:09:02;;;;;;;6.00;2.33;;;12.60;82.70;;;;;;4892839;29;20497;-84
2024/02/06 10:11:33;;;;;;;3.72;2.47;;;12.60;82.70;;;;;;4889873;29;20032;-92
2024/02/06 10:13:59;;;;;;;4.05;2.33;;;12.50;82.70;;;;;;4883096;29;20139;-83
2024/02/06 10:16:25;;;;;;;4.72;2.55;;;12.50;82.70;;;;;;4878469;29;20029;-83
2024/02/06 10:18:55;;;;;;;3.50;2.10;;;12.60;82.70;;;;;;4900332;29;20032;-95
2024/02/06 10:21:21;;;;;;;3.55;2.30;;;12.60;82.70;;;;;;4892114;29;20029;-94
2024/02/06 10:23:49;;;;;;;4.43;2.65;;;12.60;82.70;;;;;;4887185;29;20454;-85
2024/02/06 10:26:22;;;;;;;2.78;2.03;;;12.60;82.70;;;;;;4877503;29;20498;-85
2024/02/06 10:28:47;;;;;;;3.35;2.20;;;12.60;82.80;;;;;;4894557;29;20029;-86
2024/02/06 10:31:13;;;;;;;5.32;2.40;;;12.60;82.70;;;;;;4885386;29;20478;-94
2024/02/06 10:33:39;;;;;;;3.10;2.00;;;12.60;82.70;;;;;;4889397;29;20383;-79
2024/02/06 10:36:06;;;;;;;4.63;2.42;;;12.60;82.70;;;;;;4881710;29;20039;-86
2024/02/06 10:38:32;;;;;;;4.55;2.65;;;12.60;83.30;;;;;;4894495;29;20028;-79
2024/02/06 10:40:58;;;;;;;5.15;2.40;;;12.70;82.70;;;;;;4895797;29;20025;-85
2024/02/06 10:43:31;;;;;;;3.17;2.20;;;12.70;82.70;;;;;;4888701;29;20121;-79
2024/02/06 10:46:01;;;;;;;3.58;2.35;;;12.70;82.70;;;;;;4895898;29;20476;-79
2024/02/06 10:48:27;;;;;;;4.43;2.50;;;12.70;82.70;;;;;;4911886;29;20413;-84
2024/02/06 10:51:01;;;;;;;4.00;2.70;;;12.70;82.60;;;;;;4890621;29;20096;-84
2024/02/06 10:53:28;;;;;;;4.63;2.60;;;12.70;82.70;;;;;;4896411;29;20412;-84
2024/02/06 10:56:05;;;;;;;3.70;2.30;;;12.80;82.70;;;;;;4904493;29;20039;-84
2024/02/06 10:58:44;;;;;;;3.25;2.58;;;12.80;82.70;;;;;;4896055;29;20040;-86
2024/02/06 11:01:14;;;;;;;3.95;2.30;;;12.80;82.70;;;;;;4898958;29;20490;-79
2024/02/06 11:03:57;;;;;;;3.28;2.35;;;12.80;82.70;;;;;;4891082;29;20392;-96
2024/02/06 11:06:27;;;;;;;2.80;2.35;;;12.90;82.70;;;;;;4898440;29;20052;-79
2024/02/06 11:09:04;;;;;;;3.55;2.50;;;12.90;82.70;;;;;;4894573;29;20026;-86
2024/02/06 11:11:33;;;;;;;4.05;2.60;;;12.90;82.70;;;;;;4894683;29;20072;-81
2024/02/06 11:13:59;;;;;;;4.15;2.55;;;12.90;82.60;;;;;;4905873;29;20084;-84
2024/02/06 11:16:28;;;;;;;4.78;2.70;;;13.00;82.70;;;;;;4897664;29;20470;-79
2024/02/06 11:19:07;;;;;;;4.68;2.67;;;12.90;82.60;;;;;;4892481;29;20040;-91
2024/02/06 11:21:39;;;;;;;3.92;2.45;;;13.00;82.70;;;;;;4902451;29;20036;-85
2024/02/06 11:24:07;;;;;;;4.57;2.63;;;13.00;82.60;;;;;;4867334;29;20097;-79
2024/02/06 11:26:34;;;;;;;5.90;2.58;;;13.00;82.60;;;;;;4886264;29;20112;-79
2024/02/06 11:29:06;;;;;;;5.47;2.38;;;13.00;82.60;;;;;;4896001;29;20104;-79
2024/02/06 11:31:39;;;;;;;5.70;2.67;;;13.00;82.60;;;;;;4886542;29;20128;-87
2024/02/06 11:34:18;;;;;;;3.53;2.47;;;13.10;82.70;;;;;;4883834;29;20029;-90
2024/02/06 11:36:43;;;;;;;4.88;2.50;;;13.10;82.60;;;;;;4893991;29;20044;-78
2024/02/06 11:39:12;;;;;;;3.88;2.67;;;13.10;82.60;;;;;;4892263;29;20025;-81
2024/02/06 11:41:38;;;;;;;3.33;2.33;;;13.10;82.60;;;;;;4898751;29;20156;-84
2024/02/06 11:44:23;;;;;;;4.05;2.58;;;13.10;82.60;;;;;;4894218;29;20033;-83
2024/02/06 11:46:52;;;;;;;4.50;2.40;;;13.20;82.70;;;;;;4886803;29;20442;-83
2024/02/06 11:49:22;;;;;;;6.55;2.20;;;13.20;82.60;;;;;;4907342;29;20033;-84
2024/02/06 11:51:55;;;;;;;5.95;2.60;;;13.20;82.60;;;;;;4885951;29;20060;-84
2024/02/06 11:54:22;;;;;;;4.18;2.70;;;13.20;82.60;;;;;;4891665;29;20573;-84
2024/02/06 11:56:50;;;;;;;5.50;2.60;;;13.20;82.50;;;;;;4891396;29;20029;-84
2024/02/06 11:59:17;;;;;;;3.30;2.42;;;13.20;82.50;;;;;;4875313;29;20036;-82
2024/02/06 12:01:42;;;;;;;3.70;2.60;;;13.20;82.50;;;;;;4879556;29;20284;-79
2024/02/06 12:04:09;;;;;;;4.13;2.25;;;13.30;82.50;;;;;;4877062;29;20044;-79
2024/02/06 12:06:35;;;;;;;4.13;2.10;;;13.30;82.50;;;;;;4886264;29;20057;-88
2024/02/06 12:09:07;;;;;;;3.60;2.30;;;13.30;82.50;;;;;;4892541;29;20095;-79
2024/02/06 12:11:46;;;;;;;3.67;2.00;;;13.30;82.50;;;;;;4884194;29;20521;-83
2024/02/06 12:14:15;;;;;;;4.18;2.22;;;13.40;82.60;;;;;;4897139;29;20028;-82
2024/02/06 12:16:42;;;;;;;3.28;2.40;;;13.30;82.40;;;;;;4898404;29;20074;-84
2024/02/06 12:19:09;;;;;;;3.53;2.33;;;13.40;82.50;;;;;;4894677;29;20124;-85
2024/02/06 12:21:35;;;;;;;2.88;1.95;;;13.40;82.50;;;;;;4888557;29;20557;-79
2024/02/06 12:24:04;;;;;;;4.35;2.47;;;13.40;82.50;;;;;;4895345;29;20170;-93
2024/02/06 12:26:31;;;;;;;3.38;2.08;;;13.40;82.50;;;;;;4889142;29;20119;-85
2024/02/06 12:29:05;;;;;;;4.13;2.55;;;13.40;82.40;;;;;;4895084;29;20298;-94
2024/02/06 12:31:35;;;;;;;2.65;2.08;;;13.40;82.40;;;;;;4880132;29;20073;-92
2024/02/06 12:34:01;;;;;;;5.00;2.30;;;13.50;82.40;;;;;;4877943;29;20453;-79
2024/02/06 12:36:28;;;;;;;2.88;2.05;;;13.50;82.40;;;;;;4893396;29;20063;-79
2024/02/06 12:38:54;;;;;;;2.55;1.80;;;13.50;82.40;;;;;;4897082;29;20497;-83
2024/02/06 12:41:20;;;;;;;4.00;1.80;;;13.50;82.40;;;;;;4877879;29;20568;-84
2024/02/06 12:43:52;;;;;;;2.25;1.80;;;13.50;82.30;;;;;;4891540;29;20434;-78
2024/02/06 12:46:22;;;;;;;3.15;1.90;;;13.50;82.30;;;;;;4891504;29;20486;-78